Etusivu
METAR-TAF:

METAR-TAF

Lentoasemat :

College Station, Texas, Yhdysvallat

Leveyspiiri: 30-34-56N, Pituuspiiri: 096-21-42W, korkeus merenpinnasta: 97 m

Tämänhetkinen sää

Tämä raportti tehtiin 1 tunti ja 3 minuuttia sitten, kello 06.53 UTC
Tuuli 5 kn pohjoisen/luoteesta
Lämpötila 16°C
Kosteus 63%
Ilmanpaine 1021 hPa
Näkyvyys: 16.1 km
selkeää

METAR: KCLL 290653Z AUTO 33005KT 10SM CLR 16/09 A3015 RMK AO2 SLP207 T01560089

Aika: 02:56 (07:56 UTC)

Sääennuste

Tämä raportti tehtiin 2 tuntia ja 36 minuuttia sitten, kello 05.20 UTC
Ennuste voimassa 29. päivästä klo 06 UTC - 30. päivään klo 06 UTC
Tuuli 6 kn pohjoisesta
Näkyvyys: 10 km
selkeää
From 29. päivästä klo 1600 UTC
Tuuli 10 kn luoteesta
Näkyvyys: 10 km
selkeää
From 30. päivästä klo 0300 UTC
Tuuli 4 kn eri suunnista
Näkyvyys: 10 km
selkeää

TAF: KCLL 290520Z 2906/3006 36006KT P6SM SKC FM291600 32010KT P6SM SKC FM300300 VRB04KT P6SM SKC

Säähavainnot ja -ennusteet yli 4000 lentoasemalta (METAR- ja TAF-raportit).

Käytössä olevat sääasemat on merkitty karttaan keltaisilla ja punaisilla pisteillä.

Aseta hiiri pisteen päälle nähdäksesi sääaseman nimen.

Klikkaa sitten nähdäksesi säähavainnot ja -ennusteet.

Kartan vaihtaminen: klikkaa mustalla rastilla varustettuja vihreitä pisteitä, niin voit zoomata sisään; viivalla varustettua vihreää pistettä, niin voit zoomata ulos tai vihreitä nuolia, niin pääset viereisille kartoille.


METAR-TAF: